Time;durP1;ratioP1;P1;durP2;ratioP2;P2;SDS_P1;SDS_P2;PMS_P1;PMS_P2;Temp;Humidity;BMP_temperature;BMP_pressure;BME280_temperature;BME280_humidity;BME280_pressure;Samples;Min_cycle;Max_cycle;Signal;HPM_P1;HPM_P2
2023/08/13 00:00:16;;;;;;;12.07;5.90;;;21.00;99.90;;;;;;4990475;28;20484;-73
2023/08/13 00:02:43;;;;;;;11.50;5.97;;;21.00;99.90;;;;;;4989877;28;20398;-73
2023/08/13 00:05:09;;;;;;;11.80;6.50;;;21.10;99.90;;;;;;4984362;28;20420;-73
2023/08/13 00:07:35;;;;;;;10.63;5.70;;;21.20;99.90;;;;;;4970877;28;20428;-73
2023/08/13 00:10:01;;;;;;;11.35;5.78;;;21.20;99.90;;;;;;4984164;28;21336;-73
2023/08/13 00:12:26;;;;;;;10.43;6.00;;;21.20;99.90;;;;;;4992505;28;20415;-73
2023/08/13 00:14:53;;;;;;;9.90;5.00;;;21.10;99.90;;;;;;4990620;28;20413;-73
2023/08/13 00:17:19;;;;;;;10.07;5.22;;;21.00;99.90;;;;;;4994493;28;20818;-73
2023/08/13 00:19:44;;;;;;;11.73;6.57;;;20.90;99.90;;;;;;5001098;28;20428;-73
2023/08/13 00:22:11;;;;;;;10.70;5.67;;;20.90;99.90;;;;;;4988270;28;21281;-73
2023/08/13 00:24:37;;;;;;;11.00;6.30;;;20.90;99.90;;;;;;4989812;28;20409;-73
2023/08/13 00:27:02;;;;;;;12.07;5.20;;;21.00;99.90;;;;;;4989466;28;20406;-74
2023/08/13 00:29:28;;;;;;;13.68;6.00;;;21.00;99.90;;;;;;4989199;28;20422;-73
2023/08/13 00:31:55;;;;;;;13.52;5.22;;;21.00;99.90;;;;;;4992577;28;20420;-73
2023/08/13 00:34:21;;;;;;;9.65;4.90;;;21.00;99.90;;;;;;5009705;28;20443;-74
2023/08/13 00:36:47;;;;;;;11.80;5.40;;;21.00;99.90;;;;;;4998136;28;20410;-73
2023/08/13 00:39:13;;;;;;;10.03;4.70;;;21.00;99.90;;;;;;4989113;28;20799;-73
2023/08/13 00:41:38;;;;;;;11.03;5.33;;;20.90;99.90;;;;;;4989762;28;20441;-73
2023/08/13 00:44:04;;;;;;;9.98;5.63;;;20.90;99.90;;;;;;4989533;28;20403;-73
2023/08/13 00:46:30;;;;;;;11.90;5.65;;;20.90;99.90;;;;;;4989234;28;20393;-73
2023/08/13 00:48:58;;;;;;;10.25;5.20;;;20.80;99.90;;;;;;4998584;28;20420;-73
2023/08/13 00:51:25;;;;;;;10.68;5.00;;;20.90;99.90;;;;;;5008817;28;20554;-73
2023/08/13 00:53:50;;;;;;;10.65;5.65;;;20.90;99.90;;;;;;4998188;28;20414;-73
2023/08/13 00:56:16;;;;;;;9.90;5.00;;;20.90;99.90;;;;;;4989157;28;20387;-73
2023/08/13 00:58:43;;;;;;;14.30;4.70;;;20.90;99.90;;;;;;4988944;28;20921;-73
2023/08/13 01:01:09;;;;;;;9.57;4.80;;;20.90;99.90;;;;;;4989473;28;20410;-73
2023/08/13 01:03:36;;;;;;;9.38;3.85;;;20.80;99.90;;;;;;4988286;28;20721;-73
2023/08/13 01:06:07;;;;;;;10.50;4.50;;;20.80;99.90;;;;;;4989945;28;20417;-73
2023/08/13 01:08:39;;;;;;;10.30;4.80;;;20.80;99.90;;;;;;4987503;28;20413;-73
2023/08/13 01:11:26;;;;;;;11.30;4.70;;;20.80;99.90;;;;;;4990605;28;20483;-73
2023/08/13 01:14:10;;;;;;;10.00;4.60;;;20.80;99.90;;;;;;5000670;28;20413;-73
2023/08/13 01:16:41;;;;;;;9.30;4.78;;;20.80;99.90;;;;;;4989350;28;20414;-73
2023/08/13 01:19:09;;;;;;;10.68;5.07;;;20.70;99.90;;;;;;4971011;28;20432;-73
2023/08/13 01:21:35;;;;;;;9.93;5.15;;;20.60;99.90;;;;;;5002648;28;20414;-73
2023/08/13 01:24:00;;;;;;;8.80;4.43;;;20.60;99.90;;;;;;4987623;28;20416;-73
2023/08/13 01:26:30;;;;;;;9.90;4.70;;;20.70;99.90;;;;;;5003148;28;21549;-73
2023/08/13 01:29:06;;;;;;;13.13;5.03;;;20.60;99.90;;;;;;4988544;28;20406;-73
2023/08/13 01:31:37;;;;;;;10.55;5.22;;;20.60;99.90;;;;;;5001271;28;20485;-73
2023/08/13 01:34:04;;;;;;;9.32;4.43;;;20.60;99.90;;;;;;4998096;28;20476;-73
2023/08/13 01:36:31;;;;;;;8.63;4.72;;;20.70;99.90;;;;;;5008721;28;20397;-72
2023/08/13 01:38:59;;;;;;;9.80;4.70;;;20.60;99.90;;;;;;4990828;28;20483;-73
2023/08/13 01:41:42;;;;;;;9.23;4.95;;;20.60;99.90;;;;;;4988037;28;20426;-73
2023/08/13 01:44:08;;;;;;;10.02;5.03;;;20.60;99.90;;;;;;4989168;28;20390;-72
2023/08/13 01:46:33;;;;;;;16.17;5.25;;;20.60;99.90;;;;;;4987691;28;20420;-73
2023/08/13 01:48:59;;;;;;;14.63;4.72;;;20.70;99.90;;;;;;4992027;28;20386;-73
2023/08/13 01:51:24;;;;;;;9.95;4.80;;;20.70;99.90;;;;;;5010825;28;20503;-72
2023/08/13 01:53:50;;;;;;;8.90;4.95;;;20.50;99.90;;;;;;5011841;28;20426;-72
2023/08/13 01:56:16;;;;;;;11.77;4.60;;;20.50;99.90;;;;;;5011565;28;20397;-72
2023/08/13 01:58:42;;;;;;;8.27;3.88;;;20.50;99.90;;;;;;5011814;28;20451;-73
2023/08/13 02:01:07;;;;;;;9.50;4.10;;;20.50;99.90;;;;;;5007919;28;20391;-73
2023/08/13 02:03:33;;;;;;;12.10;4.63;;;20.60;99.90;;;;;;4994030;28;20448;-73
2023/08/13 02:05:58;;;;;;;10.50;4.20;;;20.40;99.90;;;;;;4993284;28;20759;-73
2023/08/13 02:08:24;;;;;;;9.47;4.83;;;20.20;99.90;;;;;;4998939;28;20421;-73
2023/08/13 02:10:49;;;;;;;8.57;4.40;;;20.20;99.90;;;;;;4991368;28;20414;-73
2023/08/13 02:13:15;;;;;;;10.67;4.53;;;20.20;99.90;;;;;;5005106;28;20408;-72
2023/08/13 02:15:40;;;;;;;10.37;4.80;;;20.20;99.90;;;;;;4984532;28;20418;-73
2023/08/13 02:18:06;;;;;;;10.70;4.83;;;20.30;99.90;;;;;;4981533;28;20412;-73
2023/08/13 02:20:31;;;;;;;10.33;4.97;;;20.30;99.90;;;;;;4990128;28;20434;-73
2023/08/13 02:22:57;;;;;;;9.23;4.50;;;20.30;99.90;;;;;;4990860;28;20465;-73
2023/08/13 02:25:22;;;;;;;10.50;4.77;;;20.50;99.90;;;;;;4989505;28;20471;-73
2023/08/13 02:27:48;;;;;;;9.90;5.03;;;20.60;99.90;;;;;;4990327;28;20402;-73
2023/08/13 02:30:14;;;;;;;11.20;4.90;;;20.60;99.90;;;;;;4999119;28;20781;-73
2023/08/13 02:32:40;;;;;;;9.80;5.07;;;20.60;99.90;;;;;;4995616;28;20413;-73
2023/08/13 02:35:06;;;;;;;10.75;4.68;;;20.60;99.90;;;;;;4976836;28;20415;-73
2023/08/13 02:37:31;;;;;;;8.93;4.30;;;20.70;99.90;;;;;;4992742;28;20425;-73
2023/08/13 02:39:58;;;;;;;10.23;4.30;;;20.70;99.90;;;;;;5001493;28;20571;-73
2023/08/13 02:42:23;;;;;;;8.57;4.20;;;20.80;99.90;;;;;;5005158;28;20420;-73
2023/08/13 02:44:49;;;;;;;8.80;4.27;;;20.90;99.90;;;;;;4988733;28;20855;-73
2023/08/13 02:47:14;;;;;;;9.20;4.57;;;21.00;99.90;;;;;;5000526;28;20407;-73
2023/08/13 02:49:40;;;;;;;10.33;4.80;;;21.00;99.90;;;;;;5007331;28;20910;-73
2023/08/13 02:52:05;;;;;;;9.13;3.80;;;21.00;99.90;;;;;;5006155;28;20424;-73
2023/08/13 02:54:31;;;;;;;10.00;4.00;;;21.00;99.90;;;;;;4997323;28;20910;-72
2023/08/13 02:56:56;;;;;;;11.07;4.47;;;21.00;99.90;;;;;;4998137;28;20417;-73
2023/08/13 02:59:22;;;;;;;8.90;3.43;;;21.00;99.90;;;;;;5009036;28;20512;-73
2023/08/13 03:01:47;;;;;;;8.30;4.00;;;21.00;99.90;;;;;;4998429;28;20804;-73
2023/08/13 03:04:13;;;;;;;8.07;4.03;;;21.00;99.90;;;;;;4991623;28;20418;-73
2023/08/13 03:06:38;;;;;;;9.43;4.73;;;20.90;99.90;;;;;;4990329;28;20402;-73
2023/08/13 03:09:04;;;;;;;9.70;4.20;;;21.00;99.90;;;;;;4996914;28;20908;-73
2023/08/13 03:11:29;;;;;;;10.53;4.60;;;21.00;99.90;;;;;;4990598;28;20410;-73
2023/08/13 03:13:55;;;;;;;9.33;4.17;;;20.90;99.90;;;;;;4989861;28;20468;-73
2023/08/13 03:16:20;;;;;;;13.23;5.20;;;20.80;99.90;;;;;;4998047;28;20781;-73
2023/08/13 03:18:46;;;;;;;10.40;4.00;;;20.70;99.90;;;;;;5007068;28;20459;-73
2023/08/13 03:21:12;;;;;;;9.05;4.20;;;20.80;99.90;;;;;;5008882;28;21149;-73
2023/08/13 03:23:37;;;;;;;8.53;3.80;;;20.80;99.90;;;;;;4997602;28;20895;-73
2023/08/13 03:26:04;;;;;;;10.90;4.10;;;20.70;99.90;;;;;;4996548;28;20503;-73
2023/08/13 03:28:29;;;;;;;8.85;4.00;;;20.70;99.90;;;;;;5007788;28;20520;-73
2023/08/13 03:30:59;;;;;;;8.40;4.10;;;20.80;99.90;;;;;;4990117;28;20439;-73
2023/08/13 03:33:25;;;;;;;8.30;3.50;;;20.90;99.90;;;;;;4994688;28;20533;-73
2023/08/13 03:35:51;;;;;;;10.32;3.88;;;20.90;99.90;;;;;;5005143;28;20901;-73
2023/08/13 03:38:17;;;;;;;7.95;4.30;;;21.00;99.90;;;;;;5007709;28;20520;-74
2023/08/13 03:40:43;;;;;;;9.03;3.90;;;21.00;99.90;;;;;;4990386;28;20478;-74
2023/08/13 03:43:09;;;;;;;7.68;3.53;;;21.00;99.90;;;;;;4990738;28;20446;-74
2023/08/13 03:45:34;;;;;;;9.80;4.00;;;21.00;99.90;;;;;;4990454;28;20430;-74
2023/08/13 03:48:00;;;;;;;10.50;3.93;;;21.00;99.90;;;;;;4990829;28;20395;-73
2023/08/13 03:50:25;;;;;;;8.30;4.10;;;21.00;99.90;;;;;;4991711;28;20537;-72
2023/08/13 03:52:51;;;;;;;12.10;5.50;;;20.90;99.90;;;;;;5010065;28;20422;-73
2023/08/13 03:55:16;;;;;;;7.93;3.90;;;20.90;99.90;;;;;;5010242;28;20468;-73
2023/08/13 03:57:42;;;;;;;10.93;4.30;;;20.90;99.90;;;;;;5009668;28;20396;-73
2023/08/13 04:00:07;;;;;;;9.65;3.97;;;20.90;99.90;;;;;;5005511;28;20540;-73
2023/08/13 04:02:33;;;;;;;7.88;3.90;;;20.90;99.90;;;;;;4990253;28;20485;-73
2023/08/13 04:04:59;;;;;;;10.70;4.25;;;21.00;99.90;;;;;;4990341;28;20503;-73
2023/08/13 04:07:24;;;;;;;9.67;4.40;;;21.00;99.90;;;;;;4992983;28;20452;-73
2023/08/13 04:09:50;;;;;;;8.70;3.87;;;21.00;99.90;;;;;;5005815;28;20420;-73
2023/08/13 04:12:15;;;;;;;10.07;3.67;;;20.90;99.90;;;;;;4985023;28;20437;-73
2023/08/13 04:14:41;;;;;;;8.63;4.17;;;20.80;99.90;;;;;;4979107;28;20516;-73
2023/08/13 04:17:06;;;;;;;8.10;3.70;;;20.90;99.90;;;;;;4991698;28;20538;-73
2023/08/13 04:19:32;;;;;;;8.57;4.20;;;20.90;99.90;;;;;;4999206;28;20426;-73
2023/08/13 04:21:57;;;;;;;7.60;3.53;;;20.90;99.90;;;;;;4998628;28;20408;-73
2023/08/13 04:24:23;;;;;;;9.67;4.27;;;20.90;99.90;;;;;;5002888;28;20486;-73
2023/08/13 04:26:48;;;;;;;7.97;3.80;;;21.00;99.90;;;;;;5006683;28;20439;-72
2023/08/13 04:29:14;;;;;;;9.03;4.43;;;20.90;99.90;;;;;;4987827;28;20473;-73
2023/08/13 04:31:39;;;;;;;10.30;5.30;;;20.70;99.90;;;;;;4989069;28;20414;-72
2023/08/13 04:34:05;;;;;;;9.60;4.50;;;20.60;99.90;;;;;;4978211;28;20416;-73
2023/08/13 04:36:30;;;;;;;10.53;4.30;;;20.70;99.90;;;;;;4985039;28;21566;-73
2023/08/13 04:38:56;;;;;;;10.13;4.90;;;20.80;99.90;;;;;;4988989;28;20421;-72
2023/08/13 04:41:21;;;;;;;12.13;4.90;;;20.80;99.90;;;;;;4997921;28;20422;-73
2023/08/13 04:43:47;;;;;;;8.80;4.27;;;20.80;99.90;;;;;;4996598;28;20402;-73
2023/08/13 04:46:12;;;;;;;8.80;4.57;;;20.80;99.90;;;;;;5002870;28;20781;-72
2023/08/13 04:48:47;;;;;;;10.37;4.43;;;20.90;99.90;;;;;;5008066;28;20917;-72
2023/08/13 04:51:15;;;;;;;13.32;4.70;;;20.80;99.90;;;;;;5004105;28;20429;-73
2023/08/13 04:53:41;;;;;;;9.60;4.32;;;20.90;99.90;;;;;;5008310;28;20401;-72
2023/08/13 04:56:07;;;;;;;10.70;4.70;;;20.90;99.90;;;;;;5004863;28;20491;-73
2023/08/13 04:58:33;;;;;;;9.45;4.70;;;20.80;99.90;;;;;;5007954;28;20419;-73
2023/08/13 05:00:59;;;;;;;8.98;4.45;;;20.80;99.90;;;;;;4990548;28;20470;-73
2023/08/13 05:03:25;;;;;;;9.98;4.53;;;20.80;99.90;;;;;;4989142;28;20461;-73
2023/08/13 05:05:51;;;;;;;11.23;5.20;;;20.90;99.90;;;;;;5003016;28;20917;-73
2023/08/13 05:08:17;;;;;;;12.37;5.00;;;20.90;99.90;;;;;;4988562;28;20405;-73
2023/08/13 05:10:42;;;;;;;9.10;4.73;;;21.10;99.90;;;;;;5005968;28;20416;-73
2023/08/13 05:13:08;;;;;;;10.83;4.87;;;21.00;99.90;;;;;;4993123;28;20402;-72
2023/08/13 05:15:33;;;;;;;10.60;4.60;;;21.00;99.90;;;;;;4988862;28;20434;-72
2023/08/13 05:17:59;;;;;;;9.70;4.80;;;21.00;99.90;;;;;;4987940;28;20501;-72
2023/08/13 05:20:24;;;;;;;9.73;5.07;;;21.10;99.90;;;;;;4993730;28;20944;-72
2023/08/13 05:22:50;;;;;;;10.07;4.60;;;21.20;99.90;;;;;;5010409;28;20419;-73
2023/08/13 05:25:15;;;;;;;9.20;4.22;;;21.20;99.90;;;;;;5012014;28;20468;-73
2023/08/13 05:27:41;;;;;;;9.80;4.70;;;21.10;99.90;;;;;;5013840;28;20536;-73
2023/08/13 05:30:07;;;;;;;11.23;5.80;;;21.00;99.90;;;;;;5003487;28;20406;-72
2023/08/13 05:32:33;;;;;;;10.40;4.75;;;21.10;99.90;;;;;;5009557;28;20417;-73
2023/08/13 05:34:59;;;;;;;11.90;4.67;;;21.10;99.90;;;;;;5013211;28;20524;-72
2023/08/13 05:37:24;;;;;;;10.40;4.80;;;21.20;99.90;;;;;;5013465;28;20429;-73
2023/08/13 05:39:50;;;;;;;9.50;4.50;;;21.30;99.90;;;;;;5011781;28;20424;-73
2023/08/13 05:42:16;;;;;;;10.65;4.95;;;21.30;99.90;;;;;;5013835;28;20408;-72
2023/08/13 05:44:42;;;;;;;11.90;4.90;;;21.40;99.90;;;;;;5012800;28;20431;-72
2023/08/13 05:47:08;;;;;;;11.07;4.40;;;21.40;99.90;;;;;;5014123;28;20424;-72
2023/08/13 05:49:33;;;;;;;15.18;4.82;;;21.30;99.90;;;;;;5010526;28;20819;-72
2023/08/13 05:51:59;;;;;;;9.23;4.27;;;21.40;99.90;;;;;;5001472;28;20779;-72
2023/08/13 05:54:24;;;;;;;9.00;4.83;;;21.50;99.90;;;;;;5012154;28;20404;-73
2023/08/13 05:56:50;;;;;;;10.87;5.50;;;21.60;99.90;;;;;;5013937;28;20889;-73
2023/08/13 05:59:15;;;;;;;10.00;4.50;;;21.70;99.90;;;;;;5003978;28;20455;-73
2023/08/13 06:01:41;;;;;;;9.20;4.80;;;21.80;99.90;;;;;;5002708;28;20408;-73
2023/08/13 06:04:06;;;;;;;10.57;4.70;;;21.90;99.90;;;;;;4999933;28;20453;-72
2023/08/13 06:06:32;;;;;;;10.83;4.63;;;21.90;99.90;;;;;;4993651;28;20788;-72
2023/08/13 06:08:57;;;;;;;12.80;4.83;;;22.10;99.90;;;;;;4993725;28;20538;-72
2023/08/13 06:11:23;;;;;;;10.53;4.40;;;22.10;99.90;;;;;;5003781;28;20459;-72
2023/08/13 06:13:49;;;;;;;11.23;4.30;;;22.30;99.90;;;;;;5007624;28;20390;-73
2023/08/13 06:16:15;;;;;;;8.88;4.70;;;22.30;99.90;;;;;;5006453;28;20414;-73
2023/08/13 06:18:40;;;;;;;8.13;4.10;;;22.20;99.90;;;;;;4996008;28;20399;-73
2023/08/13 06:21:06;;;;;;;9.20;4.27;;;22.30;99.90;;;;;;4995165;28;20437;-73
2023/08/13 06:23:31;;;;;;;9.00;4.47;;;22.30;99.90;;;;;;4995108;28;20397;-73
2023/08/13 06:25:57;;;;;;;9.77;5.03;;;22.30;99.90;;;;;;4995456;28;20401;-73
2023/08/13 06:28:23;;;;;;;9.93;4.67;;;22.40;99.90;;;;;;4995073;28;20394;-73
2023/08/13 06:30:50;;;;;;;8.80;4.10;;;22.30;99.90;;;;;;4995679;28;20406;-73
2023/08/13 06:33:15;;;;;;;9.20;4.55;;;22.30;99.90;;;;;;4993244;28;20907;-73
2023/08/13 06:35:46;;;;;;;11.18;4.88;;;22.40;99.90;;;;;;4993425;28;20452;-74
2023/08/13 06:38:15;;;;;;;10.68;4.40;;;22.50;99.90;;;;;;4992391;28;20917;-73
2023/08/13 06:40:41;;;;;;;9.40;4.15;;;22.50;99.90;;;;;;4998525;28;20937;-74
2023/08/13 06:43:07;;;;;;;9.88;4.35;;;22.50;99.90;;;;;;5006069;28;20427;-73
2023/08/13 06:45:32;;;;;;;9.23;4.10;;;22.70;99.90;;;;;;4983598;28;20398;-74
2023/08/13 06:47:58;;;;;;;8.60;4.10;;;22.60;99.90;;;;;;5015773;28;20422;-73
2023/08/13 06:50:25;;;;;;;8.13;3.60;;;22.60;99.90;;;;;;5004393;28;20434;-73
2023/08/13 06:52:51;;;;;;;9.10;3.80;;;22.70;99.90;;;;;;5002477;28;20421;-73
2023/08/13 06:55:17;;;;;;;9.65;4.10;;;22.80;89.90;;;;;;4996905;28;20421;-73
2023/08/13 06:57:42;;;;;;;9.30;3.57;;;22.80;99.90;;;;;;4999770;28;20433;-73
2023/08/13 07:00:10;;;;;;;9.40;3.87;;;22.80;96.70;;;;;;5017218;28;20523;-73
2023/08/13 07:02:35;;;;;;;8.00;3.80;;;22.90;99.90;;;;;;5000584;28;20837;-73
2023/08/13 07:05:03;;;;;;;8.63;3.30;;;22.90;47.40;;;;;;4989526;28;20420;-73
2023/08/13 07:07:28;;;;;;;7.97;3.42;;;23.00;64.60;;;;;;4998595;28;20399;-73
2023/08/13 07:09:54;;;;;;;12.15;3.80;;;23.00;50.40;;;;;;4987028;28;20409;-73
2023/08/13 07:12:19;;;;;;;10.57;3.85;;;23.10;23.60;;;;;;5014030;28;20444;-73
2023/08/13 07:14:45;;;;;;;7.20;3.40;;;23.00;36.10;;;;;;4997424;28;20855;-73
2023/08/13 07:17:11;;;;;;;7.03;3.60;;;23.10;60.40;;;;;;4989903;28;20435;-73
2023/08/13 07:19:36;;;;;;;8.50;4.20;;;23.30;55.90;;;;;;4996204;28;20425;-73
2023/08/13 07:22:02;;;;;;;8.20;3.88;;;23.50;9.00;;;;;;4987178;28;20948;-73
2023/08/13 07:24:28;;;;;;;9.32;4.20;;;23.50;1.00;;;;;;4986099;28;20858;-73
2023/08/13 07:26:53;;;;;;;8.60;4.20;;;23.60;1.00;;;;;;4977699;28;20423;-73
2023/08/13 07:29:19;;;;;;;9.30;4.30;;;23.60;1.00;;;;;;4988037;28;20428;-73
2023/08/13 07:31:44;;;;;;;8.17;4.07;;;23.60;1.00;;;;;;4981337;28;20429;-73
2023/08/13 07:34:10;;;;;;;9.32;4.18;;;23.70;1.00;;;;;;4984788;28;20495;-73
2023/08/13 07:36:35;;;;;;;8.20;3.70;;;23.70;1.00;;;;;;4991851;28;21145;-73
2023/08/13 07:39:01;;;;;;;8.37;4.10;;;23.70;1.00;;;;;;4990599;28;20441;-73
2023/08/13 07:41:26;;;;;;;8.95;3.90;;;23.90;1.00;;;;;;4988178;28;20550;-73
2023/08/13 07:43:52;;;;;;;8.77;4.00;;;24.00;1.00;;;;;;4993925;28;20460;-72
2023/08/13 07:46:18;;;;;;;8.98;3.67;;;24.00;1.00;;;;;;4983982;28;20909;-73
2023/08/13 07:48:43;;;;;;;9.25;4.43;;;24.20;1.00;;;;;;4982351;28;20408;-73
2023/08/13 07:51:10;;;;;;;8.50;3.78;;;24.40;1.00;;;;;;4988210;28;20525;-73
2023/08/13 07:53:35;;;;;;;9.63;3.70;;;24.60;1.00;;;;;;4981511;28;20442;-73
2023/08/13 07:56:01;;;;;;;10.20;3.50;;;24.80;1.00;;;;;;4984312;28;20910;-73
2023/08/13 07:58:28;;;;;;;9.00;4.15;;;24.90;1.00;;;;;;4982612;28;20435;-73
2023/08/13 08:00:53;;;;;;;9.70;4.10;;;24.90;1.00;;;;;;4990041;28;20416;-73
2023/08/13 08:03:19;;;;;;;8.53;3.80;;;24.70;1.00;;;;;;4974615;28;20449;-73
2023/08/13 08:05:48;;;;;;;10.70;4.80;;;24.60;1.00;;;;;;4977201;28;20458;-72
2023/08/13 08:08:13;;;;;;;10.13;5.07;;;24.40;1.00;;;;;;4977154;28;20880;-72
2023/08/13 08:10:39;;;;;;;10.30;5.07;;;24.50;1.00;;;;;;4991524;28;20436;-72
2023/08/13 08:13:05;;;;;;;8.00;3.50;;;24.60;1.00;;;;;;4987686;28;20748;-73
2023/08/13 08:15:30;;;;;;;10.07;4.65;;;24.70;1.00;;;;;;4979326;28;20412;-73
2023/08/13 08:17:56;;;;;;;10.20;3.63;;;24.60;99.90;;;;;;4971534;28;20420;-72
2023/08/13 08:20:22;;;;;;;10.15;4.22;;;24.60;1.00;;;;;;4969501;28;20421;-73
2023/08/13 08:22:48;;;;;;;8.70;4.43;;;24.80;1.00;;;;;;4984358;28;20403;-73
2023/08/13 08:25:14;;;;;;;10.55;4.80;;;25.00;1.00;;;;;;4989244;28;20794;-72
2023/08/13 08:27:40;;;;;;;9.30;4.60;;;25.00;99.90;;;;;;4984962;28;20418;-73
2023/08/13 08:30:06;;;;;;;9.33;4.20;;;25.00;99.90;;;;;;4978088;28;20920;-73
2023/08/13 08:32:32;;;;;;;9.00;3.97;;;25.20;99.90;;;;;;4977240;28;20395;-73
2023/08/13 08:34:57;;;;;;;8.85;4.32;;;25.40;99.90;;;;;;4971524;28;20965;-73
2023/08/13 08:37:23;;;;;;;9.32;4.47;;;25.40;99.90;;;;;;4991157;28;20495;-73
2023/08/13 08:39:49;;;;;;;7.90;3.97;;;25.30;99.90;;;;;;4982382;28;20593;-73
2023/08/13 08:42:14;;;;;;;9.63;4.63;;;25.10;99.90;;;;;;4976398;28;20418;-73
2023/08/13 08:44:45;;;;;;;9.80;4.60;;;25.30;99.90;;;;;;4984795;28;20815;-73
2023/08/13 08:47:11;;;;;;;9.07;3.88;;;25.40;1.00;;;;;;4981524;28;20934;-73
2023/08/13 08:49:37;;;;;;;8.67;4.03;;;25.30;1.00;;;;;;4987734;28;20438;-76
2023/08/13 08:52:03;;;;;;;9.60;4.20;;;25.30;1.00;;;;;;4975429;28;20408;-73
2023/08/13 08:54:32;;;;;;;9.07;3.70;;;25.70;99.90;;;;;;4975956;28;20421;-73
2023/08/13 08:56:58;;;;;;;9.85;4.05;;;26.10;99.90;;;;;;4988187;28;20501;-74
2023/08/13 08:59:38;;;;;;;7.25;3.45;;;26.40;99.90;;;;;;4979704;28;20547;-74
2023/08/13 09:02:08;;;;;;;9.80;3.10;;;26.50;3.00;;;;;;4978915;28;20484;-73
2023/08/13 09:04:34;;;;;;;7.97;3.30;;;26.40;99.90;;;;;;4982916;28;20447;-74
2023/08/13 09:07:06;;;;;;;7.33;2.93;;;26.70;1.00;;;;;;4985171;28;20468;-74
2023/08/13 09:09:32;;;;;;;7.40;3.10;;;26.90;1.00;;;;;;4979534;28;20428;-74
2023/08/13 09:12:04;;;;;;;6.77;3.00;;;26.70;99.90;;;;;;4979407;28;20410;-74
2023/08/13 09:14:29;;;;;;;6.85;2.55;;;26.20;99.90;;;;;;4971977;28;20504;-74
2023/08/13 09:16:56;;;;;;;8.30;2.90;;;26.00;99.90;;;;;;4968913;28;20554;-74
2023/08/13 09:19:27;;;;;;;12.40;7.00;;;25.90;1.00;;;;;;4982708;28;20446;-74
2023/08/13 09:21:59;;;;;;;9.27;3.65;;;26.20;99.90;;;;;;4983660;28;20579;-75
2023/08/13 09:24:39;;;;;;;7.45;3.10;;;26.30;1.00;;;;;;4977928;28;20934;-74
2023/08/13 09:27:06;;;;;;;7.80;3.20;;;26.50;1.00;;;;;;4978318;28;20798;-73
2023/08/13 09:29:32;;;;;;;7.22;3.10;;;27.10;99.90;;;;;;4980175;28;20442;-74
2023/08/13 09:31:59;;;;;;;7.38;3.10;;;27.50;69.40;;;;;;4981911;28;20422;-74
2023/08/13 09:39:36;;;;;;;7.10;3.03;;;27.20;99.90;;;;;;4710749;23;20452;-75
2023/08/13 09:42:05;;;;;;;8.20;2.70;;;27.10;1.00;;;;;;4964250;28;20430;-75
2023/08/13 09:44:30;;;;;;;8.63;3.60;;;27.20;1.00;;;;;;4961025;28;20414;-76
2023/08/13 09:47:01;;;;;;;6.97;2.80;;;27.10;1.00;;;;;;4985244;28;20493;-76
2023/08/13 09:49:32;;;;;;;8.02;2.75;;;27.20;1.00;;;;;;4958264;28;20981;-76
2023/08/13 09:52:00;;;;;;;10.25;3.53;;;27.30;99.90;;;;;;4949989;28;20749;-76
2023/08/13 09:54:45;;;;;;;7.95;2.90;;;27.70;20.90;;;;;;4956040;28;20418;-76
2023/08/13 09:57:14;;;;;;;7.78;3.30;;;27.90;1.00;;;;;;4962516;28;20411;-75
2023/08/13 09:59:41;;;;;;;7.13;2.75;;;27.40;1.00;;;;;;4950068;28;20951;-75
2023/08/13 10:02:07;;;;;;;7.70;3.20;;;27.50;1.00;;;;;;4954500;28;20935;-75
2023/08/13 10:04:39;;;;;;;7.47;2.78;;;27.40;1.00;;;;;;4958111;28;20440;-75
2023/08/13 10:07:07;;;;;;;8.40;3.20;;;27.50;99.90;;;;;;4954083;28;20418;-75
2023/08/13 10:09:34;;;;;;;8.20;3.60;;;27.70;99.90;;;;;;4960495;28;20423;-75
2023/08/13 10:12:02;;;;;;;8.40;3.78;;;28.60;1.00;;;;;;4962430;28;20399;-76
2023/08/13 10:14:28;;;;;;;8.38;3.70;;;29.20;1.00;;;;;;4962463;28;20513;-76
2023/08/13 10:16:53;;;;;;;8.43;3.90;;;29.50;99.90;;;;;;4954114;28;20417;-75
2023/08/13 10:19:28;;;;;;;9.30;3.20;;;29.50;99.90;;;;;;4968347;28;20408;-76
2023/08/13 10:21:57;;;;;;;8.27;3.50;;;30.30;99.90;;;;;;4962112;28;20440;-76
2023/08/13 10:24:27;;;;;;;7.72;3.60;;;31.90;8.30;;;;;;4959298;28;20978;-76
2023/08/13 10:26:52;;;;;;;9.10;3.50;;;32.00;1.00;;;;;;4963959;28;20923;-76
2023/08/13 10:29:19;;;;;;;7.63;3.15;;;31.20;1.00;;;;;;4956007;28;20425;-77
2023/08/13 10:32:15;;;;;;;10.07;3.80;;;30.10;1.00;;;;;;4962441;28;20404;-76
2023/08/13 10:34:50;;;;;;;9.65;4.20;;;28.80;11.70;;;;;;4953977;28;20436;-76
2023/08/13 10:37:18;;;;;;;9.65;3.50;;;28.50;99.90;;;;;;4969751;28;20768;-76
2023/08/13 10:39:46;;;;;;;9.40;4.15;;;28.70;99.90;;;;;;4961795;28;20434;-76
2023/08/13 10:42:26;;;;;;;8.98;3.22;;;28.60;99.90;;;;;;4961588;28;20784;-76
2023/08/13 10:44:54;;;;;;;9.32;3.50;;;28.90;99.90;;;;;;4964570;28;20479;-76
2023/08/13 10:47:23;;;;;;;10.07;3.77;;;29.50;99.90;;;;;;4969469;28;20770;-77
2023/08/13 10:49:48;;;;;;;9.50;4.55;;;29.70;80.20;;;;;;4959279;28;20783;-77
2023/08/13 10:52:14;;;;;;;9.10;3.95;;;29.30;94.50;;;;;;4966013;28;20409;-77
2023/08/13 10:54:40;;;;;;;10.18;4.38;;;29.00;99.90;;;;;;4960774;28;20774;-77
2023/08/13 10:57:06;;;;;;;14.90;4.50;;;29.00;99.90;;;;;;4963709;28;20416;-77
2023/08/13 10:59:37;;;;;;;11.80;4.80;;;29.40;99.90;;;;;;4953862;28;20438;-77
2023/08/13 11:02:12;;;;;;;10.55;4.40;;;29.40;65.00;;;;;;4953614;28;20418;-77
2023/08/13 11:04:40;;;;;;;9.48;4.10;;;29.20;81.20;;;;;;4958609;28;20492;-76
2023/08/13 11:07:06;;;;;;;8.45;3.80;;;28.50;99.90;;;;;;4960435;28;20418;-76
2023/08/13 11:09:32;;;;;;;12.75;4.80;;;28.10;99.90;;;;;;4955447;28;20402;-76
2023/08/13 11:11:58;;;;;;;9.80;4.53;;;28.10;99.90;;;;;;4965119;28;20432;-76
2023/08/13 11:14:24;;;;;;;11.35;4.18;;;28.10;99.90;;;;;;4956458;28;20516;-76
2023/08/13 11:16:49;;;;;;;9.63;4.30;;;28.10;99.90;;;;;;4960147;28;20422;-76
2023/08/13 11:19:15;;;;;;;11.77;4.40;;;27.80;1.00;;;;;;4956867;28;20429;-76
2023/08/13 11:21:42;;;;;;;8.80;4.37;;;27.60;1.00;;;;;;4960728;28;20457;-76
2023/08/13 11:24:12;;;;;;;11.90;4.40;;;27.80;1.00;;;;;;4956793;28;20895;-76
2023/08/13 11:26:39;;;;;;;9.68;4.43;;;28.00;99.90;;;;;;4963187;28;20840;-76
2023/08/13 11:29:05;;;;;;;11.23;4.18;;;28.10;99.90;;;;;;4962216;28;20421;-76
2023/08/13 11:31:33;;;;;;;9.10;4.25;;;28.50;99.90;;;;;;4960943;28;20423;-76
2023/08/13 11:33:59;;;;;;;9.98;4.28;;;28.50;99.90;;;;;;4962978;28;20418;-76
2023/08/13 11:36:26;;;;;;;9.25;4.35;;;28.50;99.90;;;;;;4962195;28;20444;-77
2023/08/13 11:38:52;;;;;;;8.85;4.03;;;28.70;99.90;;;;;;4952970;28;20414;-76
2023/08/13 11:41:20;;;;;;;9.18;4.22;;;28.80;99.90;;;;;;4953114;28;20496;-76
2023/08/13 11:43:53;;;;;;;9.45;4.10;;;28.90;99.90;;;;;;4952819;28;20509;-75
2023/08/13 11:46:18;;;;;;;7.53;3.20;;;29.20;61.90;;;;;;4964475;28;20409;-76
2023/08/13 11:48:44;;;;;;;9.63;3.40;;;29.20;99.90;;;;;;4960562;28;20422;-76
2023/08/13 11:51:14;;;;;;;8.48;3.58;;;29.40;43.80;;;;;;4956134;28;20410;-76
2023/08/13 11:53:45;;;;;;;6.55;2.60;;;29.30;1.00;;;;;;4952571;28;21000;-76
2023/08/13 11:56:11;;;;;;;8.00;2.60;;;29.20;42.10;;;;;;4954960;28;20413;-75
2023/08/13 11:58:38;;;;;;;8.23;1.77;;;29.40;7.50;;;;;;4954344;28;20460;-76
2023/08/13 12:01:04;;;;;;;6.20;2.10;;;29.70;1.00;;;;;;4952698;28;20430;-75
2023/08/13 12:03:41;;;;;;;6.60;2.45;;;29.80;1.00;;;;;;4963336;28;20850;-77
2023/08/13 12:06:07;;;;;;;7.65;1.92;;;29.70;1.00;;;;;;4956650;28;20497;-76
2023/08/13 12:08:34;;;;;;;7.40;2.20;;;29.70;1.00;;;;;;4961912;28;20406;-76
2023/08/13 12:11:00;;;;;;;7.00;2.40;;;29.30;1.00;;;;;;4957291;28;20410;-78
2023/08/13 12:13:27;;;;;;;6.70;1.90;;;29.20;1.00;;;;;;4957364;28;20419;-78
2023/08/13 12:15:53;;;;;;;6.50;1.80;;;29.40;1.00;;;;;;4964418;28;20422;-77
2023/08/13 12:18:19;;;;;;;7.40;2.23;;;29.60;1.00;;;;;;4963007;28;20398;-77
2023/08/13 12:20:44;;;;;;;7.07;2.10;;;29.70;1.00;;;;;;4970620;28;20434;-76
2023/08/13 12:23:10;;;;;;;6.20;2.10;;;29.50;1.00;;;;;;4952980;28;20439;-77
2023/08/13 12:25:36;;;;;;;7.10;2.30;;;29.00;1.00;;;;;;4952510;28;20440;-77
2023/08/13 12:28:02;;;;;;;6.07;2.10;;;28.90;1.00;;;;;;4952626;28;20414;-77
2023/08/13 12:30:28;;;;;;;7.32;2.40;;;28.70;1.00;;;;;;4952550;28;20461;-77
2023/08/13 12:32:54;;;;;;;6.47;2.20;;;28.70;1.00;;;;;;4951743;28;20400;-77
2023/08/13 12:35:21;;;;;;;6.80;1.80;;;28.60;1.00;;;;;;4956152;28;20766;-76
2023/08/13 12:37:47;;;;;;;6.80;2.00;;;28.80;1.00;;;;;;4951224;28;20413;-78
2023/08/13 12:40:13;;;;;;;6.05;1.65;;;29.00;1.00;;;;;;4961469;28;20774;-76
2023/08/13 12:42:39;;;;;;;6.90;2.10;;;29.10;1.00;;;;;;4951498;28;20535;-78
2023/08/13 12:45:06;;;;;;;6.95;2.60;;;29.20;1.00;;;;;;4963928;28;20414;-78
2023/08/13 12:47:35;;;;;;;6.40;2.00;;;28.80;1.00;;;;;;4962011;28;20534;-78